Gasconade River (Missouri), Rich Fountain (06934000)

StateMissouriLatestGood (2740 cfs)
RiverGasconade RiverRatingObservedEstimated
Updated2026-05-10 7:30 (1 hour ago)Flood - The river is flooding. Obstacles can be treacherous or deadly. The river should be avoided at this stage for casual trips and definitely for the inexperienced. Trips should be attempted only with protective gear and equipment.Flood(none)13580
Discharge2740 cfs (median: 3210 cfs)High - The river is high and potentially dangerous, especially for the young and / or inexperienced. Normal stream obstacles are sometimes difficult to navigate. Extended distances can be attempted, but canoe travel may not be advisable.High(none)3151
Height4.16 feetGood - Conditions are ideal for a canoe or kayak. Boats typically will drag on fewer than one-quarter of riffles, if at all, and portages are unnecessary or rare. Normal float lengths can be attempted without a problem.Good(none)1994
TrendSteady (falling over 24 hours)Low - River is low but can still be floated. Some riffles are okay but most come with significant dragging and might need a portage. Float lengths should be reduced to accommodate low flow, dragging, and portages.Low(none)1074
USGSExternal icon USGS Site (External icon Duck Duck Go Maps)Poor - River is too low to float comfortably. Most or all riffles will drag or must be portaged and some obstacles (such as slick shelf rock) cause undue problems. Avoid the river at this stage for casual paddling trips.Poor(none)484

Trending Data

Plot Image

Trips for Gasconade River (Missouri), Rich Fountain (06934000)

DateStartEndDistanceConditionDischargeHeightFishingDetails

A total of 0 rows are displayed.

Condition Descriptions

Fishing Conditions

Fish Species

Notes

Classic Trip List

The classic River Trips application is still available for use. It is updated with the new system using a data retrofit. It is no longer maintained. The original River Trips application is no longer updated (as of 1 Dec 2016) but can be checked for errors or for the condition of the data before it was converted to the new system.

Gauge Data Table

ObservationHeightDischargeMaximum
Discharge
Minimum
Discharge
Mean
Discharge
P05P10P20P25P50
(Median)
P75P80P90P95
2026-05-10 07:30 4.16 2740 39000 (2002) 706 (2001) 5710 815 1160 1610 1780 3210 6450 7530 14200 23200
2026-05-10 06:30 4.16 2740 39000 (2002) 706 (2001) 5710 815 1160 1610 1780 3210 6450 7530 14200 23200
2026-05-10 05:30 4.17 2760 39000 (2002) 706 (2001) 5710 815 1160 1610 1780 3210 6450 7530 14200 23200
2026-05-10 04:30 4.18 2770 39000 (2002) 706 (2001) 5710 815 1160 1610 1780 3210 6450 7530 14200 23200
2026-05-10 03:30 4.18 2770 39000 (2002) 706 (2001) 5710 815 1160 1610 1780 3210 6450 7530 14200 23200
2026-05-10 02:30 4.19 2780 39000 (2002) 706 (2001) 5710 815 1160 1610 1780 3210 6450 7530 14200 23200
2026-05-10 01:30 4.19 2780 39000 (2002) 706 (2001) 5710 815 1160 1610 1780 3210 6450 7530 14200 23200
2026-05-10 00:30 4.19 2780 39000 (2002) 706 (2001) 5710 815 1160 1610 1780 3210 6450 7530 14200 23200
2026-05-09 23:30 4.20 2800 39000 (2002) 706 (2001) 5710 815 1160 1610 1780 3210 6450 7530 14200 23200
2026-05-09 22:30 4.20 2800 45800 (2022) 689 (1955) 5870 851 1210 1630 1780 3100 7010 7630 13800 23800
2026-05-09 21:30 4.20 2800 45800 (2022) 689 (1955) 5870 851 1210 1630 1780 3100 7010 7630 13800 23800
2026-05-09 20:30 4.21 2810 45800 (2022) 689 (1955) 5870 851 1210 1630 1780 3100 7010 7630 13800 23800
2026-05-09 19:30 4.22 2820 45800 (2022) 689 (1955) 5870 851 1210 1630 1780 3100 7010 7630 13800 23800
2026-05-09 18:30 4.22 2820 45800 (2022) 689 (1955) 5870 851 1210 1630 1780 3100 7010 7630 13800 23800
2026-05-09 17:30 4.22 2820 45800 (2022) 689 (1955) 5870 851 1210 1630 1780 3100 7010 7630 13800 23800
2026-05-09 16:30 4.22 2820 45800 (2022) 689 (1955) 5870 851 1210 1630 1780 3100 7010 7630 13800 23800
2026-05-09 15:30 4.23 2840 45800 (2022) 689 (1955) 5870 851 1210 1630 1780 3100 7010 7630 13800 23800
2026-05-09 14:30 4.22 2820 45800 (2022) 689 (1955) 5870 851 1210 1630 1780 3100 7010 7630 13800 23800
2026-05-09 13:30 4.23 2840 45800 (2022) 689 (1955) 5870 851 1210 1630 1780 3100 7010 7630 13800 23800
2026-05-09 12:30 4.23 2840 45800 (2022) 689 (1955) 5870 851 1210 1630 1780 3100 7010 7630 13800 23800
2026-05-09 11:30 4.24 2850 45800 (2022) 689 (1955) 5870 851 1210 1630 1780 3100 7010 7630 13800 23800
2026-05-09 10:30 4.24 2850 45800 (2022) 689 (1955) 5870 851 1210 1630 1780 3100 7010 7630 13800 23800
2026-05-09 09:30 4.25 2870 45800 (2022) 689 (1955) 5870 851 1210 1630 1780 3100 7010 7630 13800 23800
2026-05-09 08:30 4.24 2850 45800 (2022) 689 (1955) 5870 851 1210 1630 1780 3100 7010 7630 13800 23800
2026-05-09 07:30 4.25 2870 45800 (2022) 689 (1955) 5870 851 1210 1630 1780 3100 7010 7630 13800 23800
2026-05-09 06:30 4.25 2870 45800 (2022) 689 (1955) 5870 851 1210 1630 1780 3100 7010 7630 13800 23800
2026-05-09 05:30 4.26 2880 45800 (2022) 689 (1955) 5870 851 1210 1630 1780 3100 7010 7630 13800 23800
2026-05-09 04:30 4.26 2880 45800 (2022) 689 (1955) 5870 851 1210 1630 1780 3100 7010 7630 13800 23800
2026-05-09 03:30 4.27 2890 45800 (2022) 689 (1955) 5870 851 1210 1630 1780 3100 7010 7630 13800 23800
2026-05-09 02:30 4.27 2890 45800 (2022) 689 (1955) 5870 851 1210 1630 1780 3100 7010 7630 13800 23800
2026-05-09 01:30 4.27 2890 45800 (2022) 689 (1955) 5870 851 1210 1630 1780 3100 7010 7630 13800 23800
2026-05-09 00:30 4.27 2890 45800 (2022) 689 (1955) 5870 851 1210 1630 1780 3100 7010 7630 13800 23800
2026-05-08 23:30 4.28 2910 45800 (2022) 689 (1955) 5870 851 1210 1630 1780 3100 7010 7630 13800 23800
2026-05-08 22:30 4.29 2920 52600 (2022) 700 (1955) 5740 851 1200 1560 1920 3190 7180 8200 11900 19900
2026-05-08 21:30 4.28 2910 52600 (2022) 700 (1955) 5740 851 1200 1560 1920 3190 7180 8200 11900 19900
2026-05-08 20:30 4.27 2890 52600 (2022) 700 (1955) 5740 851 1200 1560 1920 3190 7180 8200 11900 19900
2026-05-08 19:30 4.27 2890 52600 (2022) 700 (1955) 5740 851 1200 1560 1920 3190 7180 8200 11900 19900
2026-05-08 18:30 4.28 2910 52600 (2022) 700 (1955) 5740 851 1200 1560 1920 3190 7180 8200 11900 19900
2026-05-08 17:30 4.28 2910 52600 (2022) 700 (1955) 5740 851 1200 1560 1920 3190 7180 8200 11900 19900
2026-05-08 16:30 4.29 2920 52600 (2022) 700 (1955) 5740 851 1200 1560 1920 3190 7180 8200 11900 19900
2026-05-08 15:30 4.29 2920 52600 (2022) 700 (1955) 5740 851 1200 1560 1920 3190 7180 8200 11900 19900
2026-05-08 14:30 4.31 2950 52600 (2022) 700 (1955) 5740 851 1200 1560 1920 3190 7180 8200 11900 19900
2026-05-08 13:30 4.31 2950 52600 (2022) 700 (1955) 5740 851 1200 1560 1920 3190 7180 8200 11900 19900
2026-05-08 12:30 4.32 2960 52600 (2022) 700 (1955) 5740 851 1200 1560 1920 3190 7180 8200 11900 19900
2026-05-08 11:30 4.33 2980 52600 (2022) 700 (1955) 5740 851 1200 1560 1920 3190 7180 8200 11900 19900
2026-05-08 10:30 4.34 2990 52600 (2022) 700 (1955) 5740 851 1200 1560 1920 3190 7180 8200 11900 19900
2026-05-08 09:30 4.34 2990 52600 (2022) 700 (1955) 5740 851 1200 1560 1920 3190 7180 8200 11900 19900
2026-05-08 08:30 4.35 3010 52600 (2022) 700 (1955) 5740 851 1200 1560 1920 3190 7180 8200 11900 19900
2026-05-08 07:30 4.36 3020 52600 (2022) 700 (1955) 5740 851 1200 1560 1920 3190 7180 8200 11900 19900
2026-05-08 06:30 4.36 3020 52600 (2022) 700 (1955) 5740 851 1200 1560 1920 3190 7180 8200 11900 19900
2026-05-08 05:30 4.37 3030 52600 (2022) 700 (1955) 5740 851 1200 1560 1920 3190 7180 8200 11900 19900
2026-05-08 04:30 4.38 3050 52600 (2022) 700 (1955) 5740 851 1200 1560 1920 3190 7180 8200 11900 19900
2026-05-08 03:30 4.39 3060 52600 (2022) 700 (1955) 5740 851 1200 1560 1920 3190 7180 8200 11900 19900
2026-05-08 02:30 4.40 3080 52600 (2022) 700 (1955) 5740 851 1200 1560 1920 3190 7180 8200 11900 19900
2026-05-08 01:30 4.41 3090 52600 (2022) 700 (1955) 5740 851 1200 1560 1920 3190 7180 8200 11900 19900
2026-05-08 00:30 4.42 3110 52600 (2022) 700 (1955) 5740 851 1200 1560 1920 3190 7180 8200 11900 19900
2026-05-07 23:30 4.43 3120 52600 (2022) 700 (1955) 5740 851 1200 1560 1920 3190 7180 8200 11900 19900
2026-05-07 22:30 4.44 3130 45000 (2022) 700 (1955) 5980 886 1270 1570 1890 3360 6070 7570 12800 23100
2026-05-07 21:30 4.45 3150 45000 (2022) 700 (1955) 5980 886 1270 1570 1890 3360 6070 7570 12800 23100
2026-05-07 20:30 4.46 3160 45000 (2022) 700 (1955) 5980 886 1270 1570 1890 3360 6070 7570 12800 23100
2026-05-07 19:30 4.47 3180 45000 (2022) 700 (1955) 5980 886 1270 1570 1890 3360 6070 7570 12800 23100
2026-05-07 18:30 4.48 3190 45000 (2022) 700 (1955) 5980 886 1270 1570 1890 3360 6070 7570 12800 23100
2026-05-07 17:30 4.50 3220 45000 (2022) 700 (1955) 5980 886 1270 1570 1890 3360 6070 7570 12800 23100
2026-05-07 16:30 4.51 3240 45000 (2022) 700 (1955) 5980 886 1270 1570 1890 3360 6070 7570 12800 23100
2026-05-07 15:30 4.52 3250 45000 (2022) 700 (1955) 5980 886 1270 1570 1890 3360 6070 7570 12800 23100
2026-05-07 14:30 4.53 3260 45000 (2022) 700 (1955) 5980 886 1270 1570 1890 3360 6070 7570 12800 23100
2026-05-07 13:30 4.55 3290 45000 (2022) 700 (1955) 5980 886 1270 1570 1890 3360 6070 7570 12800 23100
2026-05-07 12:30 4.56 3310 45000 (2022) 700 (1955) 5980 886 1270 1570 1890 3360 6070 7570 12800 23100
2026-05-07 11:30 4.56 3310 45000 (2022) 700 (1955) 5980 886 1270 1570 1890 3360 6070 7570 12800 23100
2026-05-07 10:30 4.58 3340 45000 (2022) 700 (1955) 5980 886 1270 1570 1890 3360 6070 7570 12800 23100
2026-05-07 09:30 4.59 3350 45000 (2022) 700 (1955) 5980 886 1270 1570 1890 3360 6070 7570 12800 23100
2026-05-07 08:30 4.59 3350 45000 (2022) 700 (1955) 5980 886 1270 1570 1890 3360 6070 7570 12800 23100
2026-05-07 07:30 4.60 3370 45000 (2022) 700 (1955) 5980 886 1270 1570 1890 3360 6070 7570 12800 23100
2026-05-07 06:30 4.61 3380 45000 (2022) 700 (1955) 5980 886 1270 1570 1890 3360 6070 7570 12800 23100
2026-05-07 05:30 4.62 3400 45000 (2022) 700 (1955) 5980 886 1270 1570 1890 3360 6070 7570 12800 23100
2026-05-07 04:30 4.63 3410 45000 (2022) 700 (1955) 5980 886 1270 1570 1890 3360 6070 7570 12800 23100
2026-05-07 03:30 4.64 3430 45000 (2022) 700 (1955) 5980 886 1270 1570 1890 3360 6070 7570 12800 23100
2026-05-07 02:30 4.65 3440 45000 (2022) 700 (1955) 5980 886 1270 1570 1890 3360 6070 7570 12800 23100
2026-05-07 01:30 4.66 3460 45000 (2022) 700 (1955) 5980 886 1270 1570 1890 3360 6070 7570 12800 23100
2026-05-07 00:30 4.67 3470 45000 (2022) 700 (1955) 5980 886 1270 1570 1890 3360 6070 7570 12800 23100
2026-05-06 23:30 4.68 3490 45000 (2022) 700 (1955) 5980 886 1270 1570 1890 3360 6070 7570 12800 23100
2026-05-06 22:30 4.68 3490 45800 (2017) 673 (2000) 6120 880 1280 1570 1920 3550 6610 7580 14600 24700
2026-05-06 21:30 4.69 3500 45800 (2017) 673 (2000) 6120 880 1280 1570 1920 3550 6610 7580 14600 24700
2026-05-06 20:30 4.71 3530 45800 (2017) 673 (2000) 6120 880 1280 1570 1920 3550 6610 7580 14600 24700
2026-05-06 19:30 4.71 3530 45800 (2017) 673 (2000) 6120 880 1280 1570 1920 3550 6610 7580 14600 24700
2026-05-06 18:30 4.71 3530 45800 (2017) 673 (2000) 6120 880 1280 1570 1920 3550 6610 7580 14600 24700
2026-05-06 17:30 4.73 3560 45800 (2017) 673 (2000) 6120 880 1280 1570 1920 3550 6610 7580 14600 24700
2026-05-06 16:30 4.74 3580 45800 (2017) 673 (2000) 6120 880 1280 1570 1920 3550 6610 7580 14600 24700
2026-05-06 15:30 4.75 3590 45800 (2017) 673 (2000) 6120 880 1280 1570 1920 3550 6610 7580 14600 24700
2026-05-06 14:30 4.75 3590 45800 (2017) 673 (2000) 6120 880 1280 1570 1920 3550 6610 7580 14600 24700
2026-05-06 13:30 4.76 3610 45800 (2017) 673 (2000) 6120 880 1280 1570 1920 3550 6610 7580 14600 24700
2026-05-06 12:30 4.78 3640 45800 (2017) 673 (2000) 6120 880 1280 1570 1920 3550 6610 7580 14600 24700
2026-05-06 11:30 4.79 3650 45800 (2017) 673 (2000) 6120 880 1280 1570 1920 3550 6610 7580 14600 24700
2026-05-06 10:30 4.80 3670 45800 (2017) 673 (2000) 6120 880 1280 1570 1920 3550 6610 7580 14600 24700
2026-05-06 09:30 4.81 3680 45800 (2017) 673 (2000) 6120 880 1280 1570 1920 3550 6610 7580 14600 24700
2026-05-06 08:30 4.82 3700 45800 (2017) 673 (2000) 6120 880 1280 1570 1920 3550 6610 7580 14600 24700
2026-05-06 07:30 4.83 3710 45800 (2017) 673 (2000) 6120 880 1280 1570 1920 3550 6610 7580 14600 24700
2026-05-06 06:30 4.84 3730 45800 (2017) 673 (2000) 6120 880 1280 1570 1920 3550 6610 7580 14600 24700
2026-05-06 05:30 4.85 3750 45800 (2017) 673 (2000) 6120 880 1280 1570 1920 3550 6610 7580 14600 24700
2026-05-06 04:30 4.86 3760 45800 (2017) 673 (2000) 6120 880 1280 1570 1920 3550 6610 7580 14600 24700
2026-05-06 03:30 4.87 3780 45800 (2017) 673 (2000) 6120 880 1280 1570 1920 3550 6610 7580 14600 24700
2026-05-06 02:30 4.88 3790 45800 (2017) 673 (2000) 6120 880 1280 1570 1920 3550 6610 7580 14600 24700
2026-05-06 01:30 4.88 3790 45800 (2017) 673 (2000) 6120 880 1280 1570 1920 3550 6610 7580 14600 24700
2026-05-06 00:30 4.89 3810 45800 (2017) 673 (2000) 6120 880 1280 1570 1920 3550 6610 7580 14600 24700
2026-05-05 23:30 4.90 3820 45800 (2017) 673 (2000) 6120 880 1280 1570 1920 3550 6610 7580 14600 24700
2026-05-05 22:30 4.90 3820 43200 (2017) 676 (2000) 6040 881 1330 1700 1990 3290 6540 8510 13700 27000
2026-05-05 21:30 4.90 3820 43200 (2017) 676 (2000) 6040 881 1330 1700 1990 3290 6540 8510 13700 27000
2026-05-05 20:30 4.91 3840 43200 (2017) 676 (2000) 6040 881 1330 1700 1990 3290 6540 8510 13700 27000
2026-05-05 19:30 4.92 3850 43200 (2017) 676 (2000) 6040 881 1330 1700 1990 3290 6540 8510 13700 27000
2026-05-05 18:30 4.93 3870 43200 (2017) 676 (2000) 6040 881 1330 1700 1990 3290 6540 8510 13700 27000
2026-05-05 17:30 4.94 3890 43200 (2017) 676 (2000) 6040 881 1330 1700 1990 3290 6540 8510 13700 27000
2026-05-05 16:30 4.95 3900 43200 (2017) 676 (2000) 6040 881 1330 1700 1990 3290 6540 8510 13700 27000
2026-05-05 15:30 4.97 3930 43200 (2017) 676 (2000) 6040 881 1330 1700 1990 3290 6540 8510 13700 27000
2026-05-05 14:30 4.97 3930 43200 (2017) 676 (2000) 6040 881 1330 1700 1990 3290 6540 8510 13700 27000
2026-05-05 13:30 4.99 3960 43200 (2017) 676 (2000) 6040 881 1330 1700 1990 3290 6540 8510 13700 27000
2026-05-05 12:30 5.00 3980 43200 (2017) 676 (2000) 6040 881 1330 1700 1990 3290 6540 8510 13700 27000
2026-05-05 11:30 5.01 4000 43200 (2017) 676 (2000) 6040 881 1330 1700 1990 3290 6540 8510 13700 27000
2026-05-05 10:30 5.03 4030 43200 (2017) 676 (2000) 6040 881 1330 1700 1990 3290 6540 8510 13700 27000
2026-05-05 09:30 5.03 4030 43200 (2017) 676 (2000) 6040 881 1330 1700 1990 3290 6540 8510 13700 27000
2026-05-05 08:30 5.05 4060 43200 (2017) 676 (2000) 6040 881 1330 1700 1990 3290 6540 8510 13700 27000
2026-05-05 07:30 5.07 4090 43200 (2017) 676 (2000) 6040 881 1330 1700 1990 3290 6540 8510 13700 27000
2026-05-05 06:30 5.08 4110 43200 (2017) 676 (2000) 6040 881 1330 1700 1990 3290 6540 8510 13700 27000
2026-05-05 05:30 5.09 4120 43200 (2017) 676 (2000) 6040 881 1330 1700 1990 3290 6540 8510 13700 27000
2026-05-05 04:30 5.09 4120 43200 (2017) 676 (2000) 6040 881 1330 1700 1990 3290 6540 8510 13700 27000
2026-05-05 03:30 5.11 4150 43200 (2017) 676 (2000) 6040 881 1330 1700 1990 3290 6540 8510 13700 27000
2026-05-05 02:30 5.12 4170 43200 (2017) 676 (2000) 6040 881 1330 1700 1990 3290 6540 8510 13700 27000
2026-05-05 01:30 5.14 4200 43200 (2017) 676 (2000) 6040 881 1330 1700 1990 3290 6540 8510 13700 27000
2026-05-05 00:30 5.15 4220 43200 (2017) 676 (2000) 6040 881 1330 1700 1990 3290 6540 8510 13700 27000
2026-05-04 23:30 5.17 4250 43200 (2017) 676 (2000) 6040 881 1330 1700 1990 3290 6540 8510 13700 27000
2026-05-04 22:30 5.18 4270 59000 (2017) 703 (2000) 6360 884 1350 1770 2120 3340 6640 7320 15000 26800
2026-05-04 21:30 5.19 4280 59000 (2017) 703 (2000) 6360 884 1350 1770 2120 3340 6640 7320 15000 26800
2026-05-04 20:30 5.21 4320 59000 (2017) 703 (2000) 6360 884 1350 1770 2120 3340 6640 7320 15000 26800
2026-05-04 19:30 5.22 4330 59000 (2017) 703 (2000) 6360 884 1350 1770 2120 3340 6640 7320 15000 26800
2026-05-04 18:30 5.23 4350 59000 (2017) 703 (2000) 6360 884 1350 1770 2120 3340 6640 7320 15000 26800
2026-05-04 17:30 5.26 4400 59000 (2017) 703 (2000) 6360 884 1350 1770 2120 3340 6640 7320 15000 26800
2026-05-04 16:30 5.28 4430 59000 (2017) 703 (2000) 6360 884 1350 1770 2120 3340 6640 7320 15000 26800
2026-05-04 15:30 5.29 4450 59000 (2017) 703 (2000) 6360 884 1350 1770 2120 3340 6640 7320 15000 26800
2026-05-04 14:30 5.30 4460 59000 (2017) 703 (2000) 6360 884 1350 1770 2120 3340 6640 7320 15000 26800
2026-05-04 13:30 5.32 4500 59000 (2017) 703 (2000) 6360 884 1350 1770 2120 3340 6640 7320 15000 26800
2026-05-04 12:30 5.33 4510 59000 (2017) 703 (2000) 6360 884 1350 1770 2120 3340 6640 7320 15000 26800
2026-05-04 11:30 5.36 4560 59000 (2017) 703 (2000) 6360 884 1350 1770 2120 3340 6640 7320 15000 26800
2026-05-04 10:30 5.37 4580 59000 (2017) 703 (2000) 6360 884 1350 1770 2120 3340 6640 7320 15000 26800
2026-05-04 09:30 5.37 4580 59000 (2017) 703 (2000) 6360 884 1350 1770 2120 3340 6640 7320 15000 26800
2026-05-04 08:30 5.39 4610 59000 (2017) 703 (2000) 6360 884 1350 1770 2120 3340 6640 7320 15000 26800
2026-05-04 07:30 5.41 4650 59000 (2017) 703 (2000) 6360 884 1350 1770 2120 3340 6640 7320 15000 26800
2026-05-04 06:30 5.43 4680 59000 (2017) 703 (2000) 6360 884 1350 1770 2120 3340 6640 7320 15000 26800
2026-05-04 05:30 5.44 4700 59000 (2017) 703 (2000) 6360 884 1350 1770 2120 3340 6640 7320 15000 26800
2026-05-04 04:30 5.46 4730 59000 (2017) 703 (2000) 6360 884 1350 1770 2120 3340 6640 7320 15000 26800
2026-05-04 03:30 5.48 4770 59000 (2017) 703 (2000) 6360 884 1350 1770 2120 3340 6640 7320 15000 26800
2026-05-04 02:30 5.50 4800 59000 (2017) 703 (2000) 6360 884 1350 1770 2120 3340 6640 7320 15000 26800
2026-05-04 01:30 5.52 4830 59000 (2017) 703 (2000) 6360 884 1350 1770 2120 3340 6640 7320 15000 26800
2026-05-04 00:30 5.54 4870 59000 (2017) 703 (2000) 6360 884 1350 1770 2120 3340 6640 7320 15000 26800
2026-05-03 23:30 5.56 4900 59000 (2017) 703 (2000) 6360 884 1350 1770 2120 3340 6640 7320 15000 26800
2026-05-03 22:30 5.59 4950 100000 (2017) 717 (2000) 6970 919 1320 1710 2060 3480 7270 8040 12500 30500
2026-05-03 21:30 5.60 4970 100000 (2017) 717 (2000) 6970 919 1320 1710 2060 3480 7270 8040 12500 30500
2026-05-03 20:30 5.62 5010 100000 (2017) 717 (2000) 6970 919 1320 1710 2060 3480 7270 8040 12500 30500
2026-05-03 19:30 5.64 5040 100000 (2017) 717 (2000) 6970 919 1320 1710 2060 3480 7270 8040 12500 30500
2026-05-03 18:30 5.66 5080 100000 (2017) 717 (2000) 6970 919 1320 1710 2060 3480 7270 8040 12500 30500
2026-05-03 17:30 5.69 5130 100000 (2017) 717 (2000) 6970 919 1320 1710 2060 3480 7270 8040 12500 30500
2026-05-03 16:30 5.71 5160 100000 (2017) 717 (2000) 6970 919 1320 1710 2060 3480 7270 8040 12500 30500
2026-05-03 15:30 5.74 5210 100000 (2017) 717 (2000) 6970 919 1320 1710 2060 3480 7270 8040 12500 30500
2026-05-03 14:30 5.76 5250 100000 (2017) 717 (2000) 6970 919 1320 1710 2060 3480 7270 8040 12500 30500
2026-05-03 13:30 5.80 5320 100000 (2017) 717 (2000) 6970 919 1320 1710 2060 3480 7270 8040 12500 30500
2026-05-03 12:30 5.80 5320 100000 (2017) 717 (2000) 6970 919 1320 1710 2060 3480 7270 8040 12500 30500
2026-05-03 11:30 5.84 5390 100000 (2017) 717 (2000) 6970 919 1320 1710 2060 3480 7270 8040 12500 30500
2026-05-03 10:30 5.86 5430 100000 (2017) 717 (2000) 6970 919 1320 1710 2060 3480 7270 8040 12500 30500
2026-05-03 09:30 5.87 5450 100000 (2017) 717 (2000) 6970 919 1320 1710 2060 3480 7270 8040 12500 30500
2026-05-03 08:30 5.91 5520 100000 (2017) 717 (2000) 6970 919 1320 1710 2060 3480 7270 8040 12500 30500
2026-05-03 07:30 5.92 5530 100000 (2017) 717 (2000) 6970 919 1320 1710 2060 3480 7270 8040 12500 30500
2026-05-03 06:30 5.95 5590 100000 (2017) 717 (2000) 6970 919 1320 1710 2060 3480 7270 8040 12500 30500
2026-05-03 05:30 5.97 5620 100000 (2017) 717 (2000) 6970 919 1320 1710 2060 3480 7270 8040 12500 30500
2026-05-03 04:30 6.01 5700 100000 (2017) 717 (2000) 6970 919 1320 1710 2060 3480 7270 8040 12500 30500
2026-05-03 03:30 6.03 5730 100000 (2017) 717 (2000) 6970 919 1320 1710 2060 3480 7270 8040 12500 30500
2026-05-03 02:30 6.06 5790 100000 (2017) 717 (2000) 6970 919 1320 1710 2060 3480 7270 8040 12500 30500
2026-05-03 01:30 6.09 5840 100000 (2017) 717 (2000) 6970 919 1320 1710 2060 3480 7270 8040 12500 30500
2026-05-03 00:30 6.12 5900 100000 (2017) 717 (2000) 6970 919 1320 1710 2060 3480 7270 8040 12500 30500
2026-05-02 23:30 6.15 5950 100000 (2017) 717 (2000) 6970 919 1320 1710 2060 3480 7270 8040 12500 30500

A total of 177 rows are displayed for years 1922 through 2025.